world map with TIQ marked

TIQ - Airport

This information may not be accurate or current and is not valid for navigation or flight planning. No warranty of fitness for any purpose is made or implied.

flag of Northern Mariana Islandsflag of United States

Donate via PayPal

Additional information is available on the NEW Great Circle Mapper

Location
City:  Tinian Island, Northern Mariana Islands, United States
Name:Tinian International (West Tinian)
ICAO / IATA:PGWT / TIQ
FAA:TNI

Details
Type:Airport (Part 139 Class I)
Use:Public/Civil
Latitude:14°59'57"N (14.999203)
Longitude:145°37'10"E (145.619350)
Datum:WGS 1984
Elevation:270 ft (82 m)
Runways:1
Longest:8600 × 150 ft (2621 × 45.5 m)

Time
Timezone:UTC+10 (DST+12)
Local Time:

Weather
METAR:PGWT  260450Z 08013KT 7SM SCT016 28/24 A2982
TAF:PGWT  260533Z 2606/2706 08013KT P6SM SCT016= TAF PKWA 260533Z 2606/2706 08016G26KT P6SM VCTS SCT012CB BKN030 TEMPO 2606/2610 2SM +SHRA FEW006 OVC012
FM261500 10015KT P6SM VCSH SCT012 BKN035

Related Locations
Nearby:
Farthest:SJNY: 12147 mi / 19549 km
Mata de Sćo Joćo [Iberostar Praia do Forte], BA, BR

Find:

   beyond  
but within

Other Information
Maps:
Links:
Sources:

  


 


Great Circle Mapper   Great Circle Mapper
Great Circle Mapper FAQ   Great Circle Mapper FAQ
  Karl's Home Page
KLS²   KLS² Home
   GC on Facebook
Airlines of the World   Airlines of the World
Donate via PayPal


Copyright © 2004-2017, Karl L. Swartz. All rights reserved.
All trademarks mentioned herein belong to their respective owners.

Please see credits for attribution and copyright information.

Karl Swartz <karl@kls2.com>
  Powered by FreeBSD
Valid HTML 4.01!
Labeled with ICRA
hCard Microformat
Geo Microformat